createdAt,value
2019-05-16T00:02:25.737Z,94.17
2019-05-16T00:04:59.000Z,94.15
2019-05-16T00:07:29.064Z,94.26
2019-05-16T00:09:59.787Z,94.22
2019-05-16T00:12:30.697Z,94.33
2019-05-16T00:15:01.630Z,94.37
2019-05-16T00:17:33.489Z,94.48
2019-05-16T00:20:04.532Z,94.54
2019-05-16T00:22:35.547Z,94.67
2019-05-16T00:25:08.492Z,94.77
2019-05-16T00:27:38.900Z,94.98
2019-05-16T00:30:10.007Z,94.92
2019-05-16T00:32:41.798Z,95.02
2019-05-16T00:35:12.687Z,95.06
2019-05-16T00:37:43.527Z,95.06
2019-05-16T00:40:14.517Z,95.06
2019-05-16T00:42:48.897Z,95.07
2019-05-16T00:45:19.357Z,95.09
2019-05-16T00:47:50.468Z,95.05
2019-05-16T00:50:21.339Z,95.08
2019-05-16T00:52:52.385Z,95.07
2019-05-16T00:55:24.568Z,95.06
2019-05-16T00:57:55.712Z,95.00
2019-05-16T01:00:38.707Z,95.10
2019-05-16T01:03:09.638Z,95.08
2019-05-16T01:05:40.589Z,94.99
2019-05-16T01:08:13.578Z,94.98
2019-05-16T01:10:45.118Z,95.15
2019-05-16T01:13:18.388Z,95.22
2019-05-16T01:15:48.880Z,95.35
2019-05-16T01:18:19.747Z,95.24
2019-05-16T01:20:50.715Z,95.04
2019-05-16T01:23:21.917Z,94.93
2019-05-16T01:25:52.937Z,94.90
2019-05-16T01:28:24.998Z,94.86
2019-05-16T01:30:57.845Z,94.93
2019-05-16T01:33:28.333Z,94.88
2019-05-16T01:35:59.273Z,94.97
2019-05-16T01:38:29.977Z,94.77
2019-05-16T01:41:00.789Z,94.67
2019-05-16T01:43:31.757Z,94.60
2019-05-16T01:46:02.937Z,94.51
2019-05-16T01:48:34.387Z,94.42
2019-05-16T01:51:07.608Z,94.64
2019-05-16T01:53:39.512Z,94.68
2019-05-16T01:56:11.637Z,94.66
2019-05-16T01:58:42.697Z,94.61
2019-05-16T02:01:15.882Z,94.61
2019-05-16T02:03:48.100Z,94.62
2019-05-16T02:06:19.345Z,94.58
2019-05-16T02:08:50.333Z,94.61
2019-05-16T02:11:21.327Z,94.61
2019-05-16T02:13:52.188Z,94.69
2019-05-16T02:16:23.097Z,94.72
2019-05-16T02:18:54.307Z,94.73
2019-05-16T02:21:25.147Z,94.82
2019-05-16T02:23:58.655Z,94.84
2019-05-16T02:26:28.588Z,94.90
2019-05-16T02:29:00.827Z,94.83
2019-05-16T02:31:32.468Z,94.64
2019-05-16T02:34:04.759Z,94.53
2019-05-16T02:36:36.067Z,94.53
2019-05-16T02:39:10.923Z,94.64
2019-05-16T02:41:42.585Z,94.60
2019-05-16T02:44:13.037Z,94.52
2019-05-16T02:46:44.118Z,94.44
2019-05-16T02:49:15.228Z,94.55
2019-05-16T02:51:46.448Z,94.63
2019-05-16T02:54:21.049Z,94.60
2019-05-16T02:56:50.640Z,94.69
2019-05-16T02:59:21.748Z,94.67
2019-05-16T03:01:52.888Z,94.70
2019-05-16T03:04:24.037Z,94.74
2019-05-16T03:06:55.559Z,94.68
2019-05-16T03:09:26.848Z,94.58
2019-05-16T03:12:01.283Z,94.44
2019-05-16T03:14:32.459Z,94.52
2019-05-16T03:17:05.358Z,94.62
2019-05-16T03:19:37.730Z,94.66
2019-05-16T03:22:11.455Z,94.57
2019-05-16T03:24:42.274Z,94.41
2019-05-16T03:27:14.336Z,94.37
2019-05-16T03:29:45.318Z,94.33
2019-05-16T03:32:16.268Z,94.29
2019-05-16T03:34:47.509Z,94.36
2019-05-16T03:37:24.353Z,94.53
2019-05-16T03:39:51.562Z,94.63
2019-05-16T03:42:22.808Z,94.73
2019-05-16T03:44:54.117Z,94.88
2019-05-16T03:47:25.353Z,94.96
2019-05-16T03:49:56.487Z,95.12
2019-05-16T03:52:30.782Z,95.28
2019-05-16T03:55:02.046Z,95.47
2019-05-16T03:57:33.100Z,95.66
2019-05-16T04:00:04.018Z,95.86
2019-05-16T04:02:35.581Z,95.81
2019-05-16T04:05:06.753Z,95.65
2019-05-16T04:07:41.057Z,95.59
2019-05-16T04:10:11.587Z,95.61
2019-05-16T04:12:42.608Z,95.57
2019-05-16T04:15:13.651Z,95.61
2019-05-16T04:17:44.679Z,95.53
2019-05-16T04:20:17.050Z,95.35
2019-05-16T04:22:51.060Z,95.22
2019-05-16T04:25:21.704Z,95.05
2019-05-16T04:27:53.221Z,94.94
2019-05-16T04:30:24.221Z,94.90
2019-05-16T04:32:55.617Z,94.88
2019-05-16T04:35:26.827Z,94.77
2019-05-16T04:38:01.600Z,94.69
2019-05-16T04:40:31.264Z,94.54
2019-05-16T04:43:02.369Z,94.43
2019-05-16T04:45:33.419Z,94.21
2019-05-16T04:48:04.497Z,94.09
2019-05-16T04:50:35.583Z,94.08
2019-05-16T04:53:06.808Z,94.14
2019-05-16T04:55:37.797Z,94.05
2019-05-16T04:58:10.650Z,93.96
2019-05-16T05:00:42.104Z,93.87
2019-05-16T05:03:14.707Z,93.87
2019-05-16T05:05:45.676Z,93.73
2019-05-16T05:08:16.860Z,93.71
2019-05-16T05:10:50.967Z,93.61
2019-05-16T05:13:22.089Z,93.61
2019-05-16T05:15:53.528Z,92.89
2019-05-16T05:18:24.387Z,92.84
2019-05-16T05:20:56.017Z,92.47
2019-05-16T05:23:29.945Z,92.44
2019-05-16T05:26:00.438Z,91.78
2019-05-16T05:28:31.787Z,91.63
2019-05-16T05:31:02.785Z,91.45
2019-05-16T05:33:33.807Z,91.47
2019-05-16T05:36:04.779Z,91.75
2019-05-16T05:38:36.117Z,91.37
2019-05-16T05:41:07.047Z,91.64
2019-05-16T05:43:39.767Z,91.47
2019-05-16T05:46:11.577Z,91.43
2019-05-16T05:48:42.467Z,91.55
2019-05-16T05:51:13.569Z,91.68
2019-05-16T05:53:44.640Z,91.28
2019-05-16T05:56:15.627Z,91.54
2019-05-16T05:58:46.528Z,91.55
2019-05-16T06:01:20.253Z,91.59
2019-05-16T06:03:50.488Z,91.92
2019-05-16T06:06:21.927Z,91.79
2019-05-16T06:08:53.057Z,92.08
2019-05-16T06:11:24.077Z,91.41
2019-05-16T06:13:54.987Z,91.40
2019-05-16T06:16:25.758Z,91.43
2019-05-16T06:18:56.969Z,91.41
2019-05-16T06:21:33.046Z,91.27
2019-05-16T06:24:00.567Z,91.12
2019-05-16T06:26:31.535Z,90.44
2019-05-16T06:29:02.747Z,89.92
2019-05-16T06:31:33.660Z,90.14
2019-05-16T11:23:23.015Z,73.52
2019-05-16T11:25:55.350Z,70.18
2019-05-16T11:28:26.654Z,69.93
2019-05-16T11:31:03.214Z,70.97
2019-05-16T11:33:33.248Z,71.74
2019-05-16T11:36:07.424Z,72.03
2019-05-16T11:38:38.500Z,72.39
2019-05-16T11:41:10.890Z,72.68
2019-05-16T11:43:43.099Z,72.32
2019-05-16T11:46:15.191Z,71.97
2019-05-16T11:48:48.872Z,71.54
2019-05-16T11:51:21.539Z,71.76
2019-05-16T11:53:52.817Z,71.98
2019-05-16T11:56:24.749Z,70.64
2019-05-16T11:58:56.980Z,72.02
2019-05-16T12:01:29.289Z,69.55
2019-05-16T12:04:01.610Z,71.40
2019-05-16T12:06:33.863Z,71.84
2019-05-16T12:09:06.987Z,72.30
2019-05-16T12:11:39.109Z,71.02
2019-05-16T12:14:11.892Z,71.83
2019-05-16T12:16:44.238Z,70.14
2019-05-16T12:19:18.158Z,70.79
2019-05-16T12:21:50.489Z,70.87
2019-05-16T12:24:33.102Z,70.41
2019-05-16T12:26:56.929Z,67.44
2019-05-16T12:29:29.379Z,66.50
2019-05-16T12:32:02.933Z,69.85
2019-05-16T12:34:33.132Z,67.47
2019-05-16T12:37:07.394Z,67.66
2019-05-16T12:39:39.189Z,68.74
2019-05-16T12:42:11.580Z,68.35
2019-05-16T12:44:43.999Z,69.11
2019-05-16T12:47:16.501Z,68.91
2019-05-16T12:49:48.968Z,69.74
2019-05-16T12:52:22.471Z,69.50
2019-05-16T12:54:53.447Z,70.35
2019-05-16T12:57:27.612Z,69.67
2019-05-16T12:59:59.425Z,71.23
2019-05-16T13:02:32.739Z,71.86
2019-05-16T13:05:05.443Z,73.18
2019-05-16T13:07:37.922Z,73.29
2019-05-16T13:10:11.079Z,73.35
2019-05-16T13:12:43.291Z,73.61
2019-05-16T13:15:14.812Z,73.09
2019-05-16T13:17:48.583Z,70.63
2019-05-16T13:20:21.009Z,73.51
2019-05-16T13:22:53.312Z,73.25
2019-05-16T13:25:36.994Z,72.75
2019-05-16T13:28:08.303Z,71.66
2019-05-16T13:30:41.473Z,71.26
2019-05-16T13:33:13.847Z,70.58
2019-05-16T13:35:47.245Z,70.03
2019-05-16T13:38:19.960Z,69.67
2019-05-16T13:40:52.419Z,70.29
2019-05-16T13:43:26.883Z,70.79
2019-05-16T13:45:58.640Z,71.27
2019-05-16T13:48:31.021Z,71.54
2019-05-16T13:51:14.372Z,70.48
2019-05-16T13:53:37.373Z,70.01
2019-05-16T13:56:12.943Z,68.42
2019-05-16T13:58:42.159Z,67.24
2019-05-16T14:01:17.210Z,68.54
2019-05-16T14:03:49.289Z,68.08
2019-05-16T14:06:22.393Z,68.05
2019-05-16T14:08:53.309Z,68.40
2019-05-16T14:11:25.199Z,67.01
2019-05-16T14:13:56.435Z,68.69
2019-05-16T14:16:28.460Z,64.85
2019-05-16T14:19:00.658Z,63.99
2019-05-16T14:21:32.880Z,57.18
2019-05-16T14:24:08.500Z,62.73
2019-05-16T14:26:40.063Z,61.79
2019-05-16T14:29:17.672Z,61.81
2019-05-16T14:31:52.810Z,61.94
2019-05-16T14:34:28.157Z,61.58
2019-05-16T14:37:01.398Z,62.14
2019-05-16T14:39:32.478Z,62.23
2019-05-16T14:42:04.379Z,59.18
2019-05-16T14:44:57.576Z,64.08
2019-05-16T14:47:09.450Z,59.71
2019-05-16T14:49:40.599Z,62.01
2019-05-16T14:52:13.032Z,58.98
2019-05-16T14:54:46.943Z,59.56
2019-05-16T14:57:18.729Z,63.03
2019-05-16T14:59:50.689Z,62.13
2019-05-16T15:02:21.747Z,63.83
2019-05-16T15:04:53.642Z,59.23
2019-05-16T15:07:27.663Z,63.89
2019-05-16T15:10:00.473Z,64.40
2019-05-16T15:12:32.889Z,65.03
2019-05-16T15:15:17.044Z,64.83
2019-05-16T15:17:41.709Z,64.86
2019-05-16T15:20:18.297Z,64.73
2019-05-16T15:22:50.703Z,64.72
2019-05-16T15:25:23.289Z,64.28
2019-05-16T15:27:58.019Z,64.58
2019-05-16T15:30:31.219Z,64.62
2019-05-16T15:33:19.836Z,64.27
2019-05-16T15:35:48.978Z,64.09
2019-05-16T15:38:21.306Z,63.47
2019-05-16T15:40:53.450Z,63.12
2019-05-16T15:43:27.470Z,63.72
2019-05-16T15:46:01.112Z,64.55
2019-05-16T15:48:34.020Z,63.71
2019-05-16T15:51:08.983Z,64.16
2019-05-16T15:53:41.819Z,64.42
2019-05-16T15:56:14.499Z,64.83
2019-05-16T15:58:46.930Z,65.12
2019-05-16T16:01:19.709Z,64.87
2019-05-16T16:03:51.894Z,64.45
2019-05-16T16:06:27.500Z,64.96
2019-05-16T16:08:58.952Z,65.19
2019-05-16T16:11:31.185Z,65.36
2019-05-16T16:14:06.948Z,65.52
2019-05-16T16:16:38.512Z,65.98
2019-05-16T16:19:10.737Z,65.99
2019-05-16T16:21:42.848Z,66.38
2019-05-16T16:24:18.628Z,66.85
2019-05-16T16:26:50.716Z,67.05
2019-05-16T16:29:22.838Z,67.33
2019-05-16T16:31:56.904Z,67.85
2019-05-16T16:34:29.877Z,68.06
2019-05-16T16:37:02.938Z,68.32
2019-05-16T16:39:37.750Z,68.19
2019-05-16T16:42:12.911Z,68.68
2019-05-16T16:44:52.354Z,68.89
2019-05-16T16:47:26.956Z,69.50
2019-05-16T16:49:59.639Z,69.84
2019-05-16T16:52:32.109Z,69.92
2019-05-16T16:55:07.205Z,70.08
2019-05-16T16:57:38.824Z,70.38
2019-05-16T17:00:12.021Z,70.66
2019-05-16T17:02:59.396Z,71.06
2019-05-16T17:05:19.109Z,71.29
2019-05-16T17:07:51.189Z,71.47
2019-05-16T17:10:22.307Z,71.71
2019-05-16T17:12:54.289Z,71.48
2019-05-16T17:15:27.208Z,71.88
2019-05-16T17:17:59.120Z,72.21
2019-05-16T17:20:31.220Z,72.52
2019-05-16T17:23:02.307Z,72.90
2019-05-16T17:25:36.677Z,73.24
2019-05-16T17:28:08.849Z,73.58
2019-05-16T17:30:41.188Z,73.69
2019-05-16T17:33:13.599Z,73.83
2019-05-16T17:35:48.315Z,73.90
2019-05-16T17:38:19.369Z,74.85
2019-05-16T17:40:51.667Z,74.33
2019-05-16T17:43:23.831Z,74.37
2019-05-16T17:45:57.528Z,74.73
2019-05-16T17:48:30.651Z,74.91
2019-05-16T17:51:05.737Z,74.96
2019-05-16T17:53:39.297Z,75.17
2019-05-16T17:56:16.898Z,75.17
2019-05-16T17:58:51.083Z,75.16
2019-05-16T18:01:24.130Z,75.08
2019-05-16T18:03:57.365Z,74.94
2019-05-16T18:06:30.469Z,74.86
2019-05-16T18:09:06.604Z,74.90
2019-05-16T18:11:40.139Z,75.08
2019-05-16T18:14:17.880Z,75.36
2019-05-16T18:16:58.545Z,75.43
2019-05-16T18:19:29.049Z,75.56
2019-05-16T18:22:03.719Z,75.53
2019-05-16T18:24:41.659Z,75.66
2019-05-16T18:27:14.524Z,75.71
2019-05-16T18:29:52.727Z,75.87
2019-05-16T18:32:27.449Z,76.00
2019-05-16T18:35:02.052Z,76.17
2019-05-16T18:37:35.490Z,76.30
2019-05-16T18:40:09.739Z,76.71
2019-05-16T18:42:42.456Z,76.94
2019-05-16T18:45:17.169Z,77.21
2019-05-16T18:47:52.759Z,77.52
2019-05-16T18:50:29.945Z,77.83
2019-05-16T18:53:03.657Z,78.12
2019-05-16T18:55:37.038Z,78.50
2019-05-16T18:58:11.460Z,78.88
2019-05-16T19:00:43.911Z,79.14
2019-05-16T19:03:16.729Z,79.42
2019-05-16T19:05:50.778Z,79.72
2019-05-16T19:08:23.099Z,79.83
2019-05-16T19:10:56.893Z,79.91
2019-05-16T19:13:30.869Z,80.22
2019-05-16T19:16:06.260Z,81.08
2019-05-16T19:18:38.111Z,81.74
2019-05-16T19:21:09.387Z,82.30
2019-05-16T19:23:41.850Z,85.22
2019-05-16T19:26:17.269Z,82.57
2019-05-16T19:28:57.116Z,82.78
2019-05-16T19:31:31.598Z,83.00
2019-05-16T19:34:07.095Z,83.58
2019-05-16T19:36:39.828Z,83.92
2019-05-16T19:39:13.750Z,83.77
2019-05-16T19:41:47.010Z,83.96
2019-05-16T19:44:20.609Z,84.41
2019-05-16T19:46:54.359Z,84.58
2019-05-16T19:49:27.645Z,84.36
2019-05-16T19:51:58.367Z,87.17
2019-05-16T19:54:31.519Z,87.72
2019-05-16T19:57:03.829Z,85.25
2019-05-16T19:59:36.686Z,85.15
2019-05-16T20:02:10.542Z,87.99
2019-05-16T20:04:42.950Z,85.81
2019-05-16T20:07:16.812Z,85.55
2019-05-16T20:09:50.119Z,85.62
2019-05-16T20:12:22.418Z,85.47
2019-05-16T20:15:06.851Z,85.67
2019-05-16T20:17:27.438Z,88.25
2019-05-16T20:19:59.778Z,86.20
2019-05-16T20:22:30.717Z,86.09
2019-05-16T20:25:03.599Z,88.78
2019-05-16T20:27:36.713Z,86.39
2019-05-16T20:30:10.606Z,86.54
2019-05-16T20:32:44.159Z,86.96
2019-05-16T20:35:17.487Z,86.76
2019-05-16T20:37:50.149Z,86.81
2019-05-16T20:40:22.871Z,86.91
2019-05-16T20:42:56.405Z,86.80
2019-05-16T20:45:28.669Z,86.67
2019-05-16T20:48:11.110Z,86.86
2019-05-16T20:50:34.549Z,86.92
2019-05-16T20:53:07.497Z,86.90
2019-05-16T20:55:40.796Z,87.13
2019-05-16T20:58:16.388Z,87.22
2019-05-16T21:00:49.771Z,87.38
2019-05-16T21:03:23.268Z,87.40
2019-05-16T21:05:57.880Z,87.64
2019-05-16T21:08:28.319Z,89.77
2019-05-16T21:10:59.637Z,87.93
2019-05-16T21:13:31.799Z,89.53
2019-05-16T21:16:04.019Z,87.63
2019-05-16T21:18:37.675Z,87.68
2019-05-16T21:21:10.379Z,87.32
2019-05-16T21:23:42.918Z,87.61
2019-05-16T21:26:15.449Z,87.95
2019-05-16T21:28:51.035Z,88.17
2019-05-16T21:31:23.900Z,88.33
2019-05-16T21:33:56.582Z,88.32
2019-05-16T21:36:29.093Z,88.19
2019-05-16T21:39:02.689Z,88.28
2019-05-16T21:41:36.664Z,88.33
2019-05-16T21:44:08.948Z,88.54
2019-05-16T21:46:39.867Z,88.50
2019-05-16T21:49:12.236Z,90.12
2019-05-16T21:51:46.427Z,88.91
2019-05-16T21:54:18.170Z,88.80
2019-05-16T21:56:49.457Z,88.83
2019-05-16T21:59:21.741Z,90.58
2019-05-16T22:01:56.470Z,89.28
2019-05-16T22:04:29.779Z,88.89
2019-05-16T22:07:02.029Z,88.92
2019-05-16T22:09:37.016Z,89.12
2019-05-16T22:12:12.239Z,89.07
2019-05-16T22:14:50.829Z,88.88
2019-05-16T22:17:27.464Z,89.13
2019-05-16T22:20:00.229Z,89.30
2019-05-16T22:22:31.447Z,89.35
2019-05-16T22:25:03.401Z,91.02
2019-05-16T22:27:34.787Z,89.33
2019-05-16T22:30:10.709Z,90.81
2019-05-16T22:32:42.629Z,89.36
2019-05-16T22:35:16.823Z,89.37
2019-05-16T22:37:55.484Z,89.58
2019-05-16T22:40:26.537Z,89.35
2019-05-16T22:42:58.329Z,89.47
2019-05-16T22:45:30.431Z,89.53
2019-05-16T22:48:02.489Z,89.33
2019-05-16T22:50:36.462Z,89.28
2019-05-16T22:53:08.672Z,89.57
2019-05-16T22:55:40.660Z,89.49
2019-05-16T22:58:12.832Z,89.57
2019-05-16T23:00:43.999Z,89.56
2019-05-16T23:03:17.363Z,91.03
2019-05-16T23:05:50.684Z,89.83
2019-05-16T23:08:21.565Z,89.75
2019-05-16T23:10:53.410Z,91.35
2019-05-16T23:13:26.396Z,89.91
2019-05-16T23:15:58.860Z,91.11
2019-05-16T23:18:31.908Z,89.79
2019-05-16T23:21:06.215Z,89.43
2019-05-16T23:23:37.827Z,89.64
2019-05-16T23:26:10.029Z,89.48
2019-05-16T23:28:42.088Z,89.56
2019-05-16T23:31:16.492Z,89.40
2019-05-16T23:33:47.708Z,89.64
2019-05-16T23:36:20.028Z,89.38
2019-05-16T23:38:51.067Z,89.36
2019-05-16T23:41:22.829Z,90.65
2019-05-16T23:43:56.673Z,89.38
2019-05-16T23:46:28.778Z,89.21
2019-05-16T23:49:00.849Z,89.03
2019-05-16T23:51:32.849Z,89.10
2019-05-16T23:54:06.693Z,89.14
2019-05-16T23:56:38.649Z,89.10
2019-05-16T23:59:10.607Z,89.15
